Time;durP1;ratioP1;P1;durP2;ratioP2;P2;SDS_P1;SDS_P2;PMS_P1;PMS_P2;Temp;Humidity;BMP_temperature;BMP_pressure;BME280_temperature;BME280_humidity;BME280_pressure;Samples;Min_cycle;Max_cycle;Signal;HPM_P1;HPM_P2
2021/08/17 00:01:07;;;;;;;;;0.00;0.00;;;;;26.16;39.14;101402.41;5077438;28;45822;-62
2021/08/17 00:03:40;;;;;;;;;0.33;0.00;;;;;26.15;39.69;101400.59;5076713;27;47399;-62
2021/08/17 00:06:07;;;;;;;;;0.00;0.00;;;;;26.15;39.62;101400.59;5076830;28;45386;-62
2021/08/17 00:08:33;;;;;;;;;0.00;0.00;;;;;26.14;39.78;101405.19;5059141;28;45765;-63
2021/08/17 00:10:59;;;;;;;;;0.00;0.00;;;;;26.14;39.43;101399.72;5076921;28;45476;-62
2021/08/17 00:13:24;;;;;;;;;0.00;0.00;;;;;26.17;39.48;101406.00;5076628;28;45418;-62
2021/08/17 00:15:50;;;;;;;;;0.00;0.00;;;;;26.14;39.69;101398.84;5076746;28;45453;-62
2021/08/17 00:18:22;;;;;;;;;0.00;0.00;;;;;26.18;39.75;101396.84;5075699;28;45452;-63
2021/08/17 00:20:55;;;;;;;;;0.00;0.00;;;;;26.17;39.55;101403.28;5076905;28;45522;-62
2021/08/17 00:23:20;;;;;;;;;0.00;0.00;;;;;26.18;39.41;101405.03;5076701;28;46811;-62
2021/08/17 00:25:46;;;;;;;;;0.00;0.00;;;;;26.18;39.69;101394.13;5076546;28;45436;-62
2021/08/17 00:28:12;;;;;;;;;0.00;0.00;;;;;26.18;39.23;101396.84;5076638;28;45401;-62
2021/08/17 00:30:39;;;;;;;;;0.00;0.00;;;;;26.18;39.41;101407.75;5076706;28;45424;-62
2021/08/17 00:33:04;;;;;;;;;0.00;0.00;;;;;26.18;39.49;101399.59;5058157;28;47190;-62
2021/08/17 00:35:30;;;;;;;;;0.00;0.00;;;;;26.17;39.68;101398.72;5076197;28;45393;-63
2021/08/17 00:37:55;;;;;;;;;0.00;0.00;;;;;26.18;39.49;101394.13;5058052;28;45382;-63
2021/08/17 00:40:21;;;;;;;;;0.00;0.00;;;;;26.14;39.29;101387.94;5076644;28;45570;-62
2021/08/17 00:42:47;;;;;;;;;0.00;0.00;;;;;26.18;39.99;101391.41;5076209;28;45687;-62
2021/08/17 00:45:19;;;;;;;;;0.00;0.00;;;;;26.18;39.62;101394.13;5076386;28;45488;-62
2021/08/17 00:47:44;;;;;;;;;0.00;0.00;;;;;26.17;39.80;101392.38;5076515;28;45768;-62
2021/08/17 00:50:10;;;;;;;;;0.00;0.00;;;;;26.19;39.92;101395.94;5076477;28;45414;-62
2021/08/17 00:52:37;;;;;;;;;0.00;0.00;;;;;26.15;39.77;101385.13;5076007;28;45540;-63
2021/08/17 00:55:03;;;;;;;;;0.00;0.00;;;;;26.17;39.83;101376.00;5076038;28;45445;-63
2021/08/17 00:57:28;;;;;;;;;0.00;0.00;;;;;26.19;39.55;101383.16;5076006;28;45418;-63
2021/08/17 00:59:54;;;;;;;;;0.00;0.00;;;;;26.20;39.56;101387.69;5076484;28;45421;-63
2021/08/17 01:02:19;;;;;;;;;0.00;0.00;;;;;26.21;39.66;101388.56;5075888;27;46124;-62
2021/08/17 01:04:46;;;;;;;;;0.00;0.00;;;;;26.20;39.33;101393.16;5076023;28;45783;-62
2021/08/17 01:07:11;;;;;;;;;0.00;0.00;;;;;26.19;39.90;101388.63;5057996;28;45493;-62
2021/08/17 01:09:38;;;;;;;;;0.00;0.00;;;;;26.20;39.52;101378.59;5057349;28;45442;-62
2021/08/17 01:12:04;;;;;;;;;0.00;0.00;;;;;26.20;39.71;101382.25;5075772;28;45452;-62
2021/08/17 01:14:29;;;;;;;;;0.00;0.00;;;;;26.18;39.65;101378.69;5075721;28;45358;-62
2021/08/17 01:16:55;;;;;;;;;0.00;0.00;;;;;26.18;40.10;101378.69;5074446;28;45331;-62
2021/08/17 01:19:22;;;;;;;;;0.00;0.00;;;;;26.20;39.59;101387.69;5076166;28;45384;-62
2021/08/17 01:21:48;;;;;;;;;0.00;0.00;;;;;26.20;39.95;101376.78;5075596;28;47096;-63
2021/08/17 01:24:16;;;;;;;;;0.00;0.00;;;;;26.19;39.81;101376.84;5075645;28;44893;-62
2021/08/17 01:26:41;;;;;;;;;0.00;0.00;;;;;26.18;40.11;101380.50;5057561;28;45441;-62
2021/08/17 01:29:11;;;;;;;;;0.00;0.00;;;;;26.20;39.50;101381.31;5075740;28;45461;-62
2021/08/17 01:31:37;;;;;;;;;0.00;0.00;;;;;26.14;39.86;101377.03;5075535;28;45586;-62
2021/08/17 01:34:03;;;;;;;;;0.00;0.00;;;;;26.19;40.09;101387.75;5075562;28;45467;-62
2021/08/17 01:36:29;;;;;;;;;0.00;0.00;;;;;26.17;39.56;101385.06;5075572;28;45449;-62
2021/08/17 01:38:54;;;;;;;;;0.00;0.00;;;;;26.18;40.07;101394.13;5075585;28;45471;-62
2021/08/17 01:41:20;;;;;;;;;0.00;0.00;;;;;26.13;39.87;101387.03;5075471;28;45769;-62
2021/08/17 01:43:52;;;;;;;;;1.00;0.00;;;;;26.14;39.85;101387.94;5075284;28;45409;-62
2021/08/17 01:46:18;;;;;;;;;0.00;0.00;;;;;26.13;40.05;101389.75;5075675;28;45514;-62
2021/08/17 01:48:43;;;;;;;;;0.00;0.00;;;;;26.11;40.02;101391.66;5075440;28;45489;-62
2021/08/17 01:51:10;;;;;;;;;0.00;0.00;;;;;26.12;40.09;101396.19;5074975;28;45423;-62
2021/08/17 01:53:36;;;;;;;;;0.00;0.00;;;;;26.10;39.62;101392.63;5075241;28;45464;-62
2021/08/17 01:56:07;;;;;;;;;0.00;0.00;;;;;26.11;39.75;101393.50;5075267;28;45465;-62
2021/08/17 01:58:32;;;;;;;;;0.33;0.33;;;;;26.08;40.00;101389.06;5075467;28;45812;-62
2021/08/17 02:00:58;;;;;;;;;0.00;0.00;;;;;26.06;40.16;101380.06;5074939;28;45514;-62
2021/08/17 02:03:24;;;;;;;;;0.33;0.33;;;;;26.06;39.89;101377.34;5075119;28;45472;-62
2021/08/17 02:05:50;;;;;;;;;0.00;0.00;;;;;26.05;39.86;101375.56;5075306;28;45775;-62
2021/08/17 02:08:15;;;;;;;;;0.00;0.00;;;;;26.04;40.00;101375.63;5075407;28;45397;-62
2021/08/17 02:10:41;;;;;;;;;0.00;0.00;;;;;26.05;40.23;101377.41;5074888;28;45681;-62
2021/08/17 02:13:06;;;;;;;;;0.00;0.00;;;;;26.05;39.91;101374.69;5056792;28;45447;-62
2021/08/17 02:15:33;;;;;;;;;0.00;0.00;;;;;26.04;40.12;101367.47;5075005;28;45567;-62
2021/08/17 02:17:59;;;;;;;;;0.00;0.00;;;;;26.03;39.96;101369.28;5073848;28;45480;-62
2021/08/17 02:20:24;;;;;;;;;0.67;0.67;;;;;26.02;40.35;101370.25;5074208;28;46539;-62
2021/08/17 02:22:50;;;;;;;;;0.67;0.67;;;;;26.02;39.96;101364.78;5056641;28;45355;-62
2021/08/17 02:25:16;;;;;;;;;0.00;0.00;;;;;26.02;39.82;101362.06;5075272;28;45407;-62
2021/08/17 02:27:41;;;;;;;;;0.00;0.00;;;;;26.03;40.08;101374.72;5057041;28;45770;-62
2021/08/17 02:30:07;;;;;;;;;0.00;0.00;;;;;26.01;40.12;101365.72;5074656;28;46092;-62
2021/08/17 02:32:33;;;;;;;;;0.00;0.00;;;;;26.03;40.28;101362.94;5074892;28;45450;-62
2021/08/17 02:34:58;;;;;;;;;0.33;0.33;;;;;26.03;40.53;101372.00;5056543;28;45479;-62
2021/08/17 02:37:24;;;;;;;;;0.67;0.00;;;;;26.02;40.08;101367.53;5074520;28;45535;-62
2021/08/17 02:39:51;;;;;;;;;0.67;0.67;;;;;26.01;40.00;101368.44;5074700;28;45464;-62
2021/08/17 02:42:17;;;;;;;;;0.00;0.00;;;;;26.00;40.19;101369.41;5056281;28;45416;-62
2021/08/17 02:44:42;;;;;;;;;1.00;1.00;;;;;26.00;40.40;101363.09;5056171;28;45422;-62
2021/08/17 02:47:08;;;;;;;;;0.00;0.00;;;;;26.00;40.46;101374.88;5074634;28;45420;-62
2021/08/17 02:49:34;;;;;;;;;0.00;0.00;;;;;25.99;40.27;101373.06;5073661;28;45533;-62
2021/08/17 02:52:04;;;;;;;;;0.00;0.00;;;;;25.98;40.36;101374.03;5074479;28;45491;-62
2021/08/17 02:54:35;;;;;;;;;0.00;0.00;;;;;25.99;40.42;101378.53;5074551;28;45452;-62
2021/08/17 02:57:00;;;;;;;;;0.67;0.67;;;;;25.98;40.34;101373.16;5056213;28;45414;-62
2021/08/17 02:59:26;;;;;;;;;0.00;0.00;;;;;25.97;40.53;101374.09;5055776;28;46198;-62
2021/08/17 03:01:51;;;;;;;;;0.00;0.00;;;;;25.98;40.38;101365.88;5074299;28;45666;-62
2021/08/17 03:04:18;;;;;;;;;0.00;0.00;;;;;25.98;40.25;101371.31;5074571;28;45815;-62
2021/08/17 03:06:43;;;;;;;;;0.00;0.00;;;;;25.97;40.08;101372.25;5074288;28;45440;-62
2021/08/17 03:09:09;;;;;;;;;0.67;0.00;;;;;25.98;40.23;101370.44;5074049;28;45890;-61
2021/08/17 03:11:34;;;;;;;;;0.00;0.00;;;;;25.97;40.33;101365.91;5074263;28;45763;-62
2021/08/17 03:13:59;;;;;;;;;1.00;1.00;;;;;25.97;40.44;101372.25;5056029;28;45449;-62
2021/08/17 03:16:33;;;;;;;;;0.00;0.00;;;;;25.96;40.09;101366.88;5073589;28;45430;-62
2021/08/17 03:18:59;;;;;;;;;0.33;0.33;;;;;25.94;40.36;101365.09;5033866;28;45529;-62
2021/08/17 03:21:24;;;;;;;;;0.33;0.33;;;;;25.92;40.47;101356.09;5033725;28;45385;-63
2021/08/17 03:23:50;;;;;;;;;0.00;0.00;;;;;25.93;40.76;101357.88;5033918;28;45452;-63
2021/08/17 03:26:16;;;;;;;;;0.00;0.00;;;;;25.93;40.38;101356.97;5034222;28;45382;-62
2021/08/17 03:28:42;;;;;;;;;0.00;0.00;;;;;25.94;40.29;101364.22;5033791;28;45731;-62
2021/08/17 03:31:07;;;;;;;;;0.00;0.00;;;;;25.93;40.11;101367.88;5034398;28;45425;-62
2021/08/17 03:33:33;;;;;;;;;0.00;0.00;;;;;25.92;40.19;101363.38;5037190;28;45399;-62
2021/08/17 03:35:59;;;;;;;;;1.33;0.33;;;;;25.90;40.28;101351.66;5037421;28;45372;-62
2021/08/17 03:38:25;;;;;;;;;0.00;0.00;;;;;25.92;40.39;101366.13;5036814;28;45389;-62
2021/08/17 03:40:50;;;;;;;;;0.00;0.00;;;;;25.91;40.35;101364.31;5035707;28;45359;-63
2021/08/17 03:43:16;;;;;;;;;0.00;0.00;;;;;25.88;40.53;101353.53;5035799;28;45548;-63
2021/08/17 03:45:41;;;;;;;;;0.00;0.00;;;;;25.91;40.19;101353.41;5036902;28;45475;-63
2021/08/17 03:48:07;;;;;;;;;1.00;0.00;;;;;25.89;40.40;101358.88;5036866;28;46276;-63
2021/08/17 03:50:32;;;;;;;;;0.00;0.00;;;;;25.90;40.35;101368.00;5036951;28;45512;-63
2021/08/17 03:52:58;;;;;;;;;0.00;0.00;;;;;25.87;40.27;101362.63;5035699;28;45577;-62
2021/08/17 03:55:23;;;;;;;;;0.00;0.00;;;;;25.87;40.82;101354.47;5036928;28;45520;-62
2021/08/17 03:57:50;;;;;;;;;0.00;0.00;;;;;25.87;40.75;101359.91;5036680;28;46039;-63
2021/08/17 04:00:19;;;;;;;;;0.00;0.00;;;;;25.87;40.05;101357.19;5036641;28;45504;-63
2021/08/17 04:02:44;;;;;;;;;0.00;0.00;;;;;25.87;40.61;101357.19;5035645;28;45450;-62
2021/08/17 04:05:10;;;;;;;;;0.33;0.00;;;;;25.85;40.44;101354.50;5036921;28;45334;-62
2021/08/17 04:07:36;;;;;;;;;0.33;0.33;;;;;25.87;40.43;101359.91;5036636;28;46049;-62
2021/08/17 04:10:03;;;;;;;;;0.00;0.00;;;;;25.86;40.52;101360.88;5036377;28;45789;-62
2021/08/17 04:12:29;;;;;;;;;0.00;0.00;;;;;25.85;40.49;101361.81;5036547;28;45465;-62
2021/08/17 04:14:54;;;;;;;;;0.00;0.00;;;;;25.84;40.75;101354.59;5036794;28;45512;-62
2021/08/17 04:17:19;;;;;;;;;1.33;0.00;;;;;25.83;40.60;101356.41;5049787;28;45757;-62
2021/08/17 04:19:45;;;;;;;;;0.00;0.00;;;;;25.83;40.43;101358.25;5076596;28;45443;-63
2021/08/17 04:22:10;;;;;;;;;0.00;0.00;;;;;25.81;40.52;101351.97;5076826;28;45484;-63
2021/08/17 04:24:35;;;;;;;;;0.00;0.00;;;;;25.81;40.52;101346.53;5077002;28;45481;-63
2021/08/17 04:27:02;;;;;;;;;0.00;0.00;;;;;25.81;40.44;101351.97;5076685;28;45436;-63
2021/08/17 04:29:29;;;;;;;;;0.00;0.00;;;;;25.81;40.68;101354.72;5075271;28;45411;-63
2021/08/17 04:31:54;;;;;;;;;0.00;0.00;;;;;25.80;40.52;101355.69;5076675;28;45770;-63
2021/08/17 04:34:20;;;;;;;;;0.00;0.00;;;;;25.78;40.44;101344.81;5076657;28;45418;-63
2021/08/17 04:36:45;;;;;;;;;0.00;0.00;;;;;25.79;40.79;101348.44;5076400;28;46155;-63
2021/08/17 04:39:10;;;;;;;;;0.00;0.00;;;;;25.78;40.50;101346.69;5058058;28;45489;-62
2021/08/17 04:41:37;;;;;;;;;0.00;0.00;;;;;25.75;40.64;101343.13;5076529;28;45515;-62
2021/08/17 04:44:03;;;;;;;;;0.67;0.00;;;;;25.79;40.45;101348.44;5075983;28;45730;-62
2021/08/17 04:46:28;;;;;;;;;0.00;0.00;;;;;25.76;40.48;101335.81;5075424;28;46035;-62
2021/08/17 04:49:00;;;;;;;;;0.00;0.00;;;;;25.79;40.69;101348.44;5076215;28;45478;-62
2021/08/17 04:51:27;;;;;;;;;1.00;1.00;;;;;25.77;40.61;101348.47;5076466;28;45497;-62
2021/08/17 04:53:54;;;;;;;;;0.00;0.00;;;;;25.78;40.63;101352.13;5076195;28;45784;-63
2021/08/17 04:56:20;;;;;;;;;0.00;0.00;;;;;25.76;40.78;101354.91;5076104;28;46327;-63
2021/08/17 04:58:45;;;;;;;;;0.00;0.00;;;;;25.74;40.83;101348.63;5057703;28;45515;-63
2021/08/17 05:01:10;;;;;;;;;0.00;0.00;;;;;25.77;40.60;101350.34;5076238;28;45863;-63
2021/08/17 05:03:36;;;;;;;;;0.00;0.00;;;;;25.75;40.54;101347.66;5076456;28;45452;-63
2021/08/17 05:06:01;;;;;;;;;0.00;0.00;;;;;25.74;40.72;101351.34;5076190;28;45875;-63
2021/08/17 05:08:27;;;;;;;;;0.00;0.00;;;;;25.73;40.64;101347.75;5075889;28;45434;-62
2021/08/17 05:10:52;;;;;;;;;0.00;0.00;;;;;25.73;40.77;101353.19;5076201;28;45400;-62
2021/08/17 05:13:18;;;;;;;;;0.00;0.00;;;;;25.74;40.75;101352.22;5076346;28;45384;-62
2021/08/17 05:15:43;;;;;;;;;0.67;0.67;;;;;25.75;40.90;101364.00;5075792;28;45338;-63
2021/08/17 05:18:09;;;;;;;;;0.00;0.00;;;;;25.73;40.63;101364.09;5074224;28;45449;-63
2021/08/17 05:20:34;;;;;;;;;0.00;0.00;;;;;25.73;40.59;101364.09;5057702;28;45667;-63
2021/08/17 05:23:00;;;;;;;;;0.00;0.00;;;;;25.72;40.60;101362.28;5076043;28;44863;-63
2021/08/17 05:25:25;;;;;;;;;0.00;0.00;;;;;25.72;40.62;101365.03;5075800;28;45303;-63
2021/08/17 05:27:53;;;;;;;;;0.00;0.00;;;;;25.74;40.56;101374.03;5075825;28;45446;-63
2021/08/17 05:30:18;;;;;;;;;0.00;0.00;;;;;25.72;40.81;101373.19;5075539;28;45556;-63
2021/08/17 05:32:44;;;;;;;;;0.00;0.00;;;;;25.74;40.67;101373.16;5075633;28;45448;-63
2021/08/17 05:35:10;;;;;;;;;0.00;0.00;;;;;25.73;40.61;101371.34;5057373;28;45435;-63
2021/08/17 05:37:35;;;;;;;;;0.00;0.00;;;;;25.75;40.62;101381.25;5056913;28;45425;-62
2021/08/17 05:40:01;;;;;;;;;0.00;0.00;;;;;25.76;40.75;101387.59;5040695;28;45544;-62
2021/08/17 05:42:26;;;;;;;;;0.00;0.00;;;;;25.79;40.38;101400.19;5075658;28;45386;-62
2021/08/17 05:45:06;;;;;;;;;0.00;0.00;;;;;25.81;40.46;101396.47;5055386;28;46132;-62
2021/08/17 05:47:32;;;;;;;;;0.00;0.00;;;;;25.82;40.72;101394.66;5074885;28;45781;-62
2021/08/17 05:49:58;;;;;;;;;0.00;0.00;;;;;25.82;40.72;101392.81;5075113;28;45513;-63
2021/08/17 05:52:23;;;;;;;;;0.00;0.00;;;;;25.85;40.43;101398.13;5075440;28;45498;-62
2021/08/17 05:54:48;;;;;;;;;0.00;0.00;;;;;25.88;40.58;101397.13;5073835;28;45484;-62
2021/08/17 05:57:14;;;;;;;;;0.00;0.00;;;;;25.91;40.60;101397.03;5075391;28;45595;-63
2021/08/17 05:59:46;;;;;;;;;0.00;0.00;;;;;25.93;40.41;101401.50;5075550;28;45427;-63
2021/08/17 06:02:17;;;;;;;;;0.00;0.00;;;;;25.96;40.59;101402.31;5075291;27;45588;-63
2021/08/17 06:04:43;;;;;;;;;0.00;0.00;;;;;25.97;40.72;101402.22;5075036;28;46221;-63
2021/08/17 06:07:08;;;;;;;;;0.00;0.00;;;;;25.98;40.67;101395.84;5075086;28;45370;-63
2021/08/17 06:09:34;;;;;;;;;0.00;0.00;;;;;26.00;40.57;101402.13;5075062;28;45432;-63
2021/08/17 06:12:01;;;;;;;;;0.00;0.00;;;;;26.03;40.45;101401.09;5075359;28;45515;-63
2021/08/17 06:14:26;;;;;;;;;0.00;0.00;;;;;26.02;40.47;101399.34;5067029;27;47843;-63
2021/08/17 06:16:52;;;;;;;;;0.00;0.00;;;;;26.05;40.61;101397.34;5064613;28;45809;-62
2021/08/17 06:19:17;;;;;;;;;0.00;0.00;;;;;26.06;40.26;101406.44;5060755;28;45508;-63
2021/08/17 06:21:43;;;;;;;;;0.00;0.00;;;;;26.08;40.51;101408.16;5072278;28;45474;-62
2021/08/17 06:24:08;;;;;;;;;0.00;0.00;;;;;26.10;40.17;101411.72;5069287;28;45549;-63
2021/08/17 06:26:34;;;;;;;;;5.67;5.67;;;;;26.06;39.74;101412.78;5071962;27;45473;-65
2021/08/17 06:28:59;;;;;;;;;8.67;6.00;;;;;25.77;39.58;101405.69;5073326;28;45831;-65
2021/08/17 06:31:25;;;;;;;;;5.00;4.67;;;;;25.41;40.08;101408.91;5073473;28;45537;-65
2021/08/17 06:33:55;;;;;;;;;10.00;9.33;;;;;25.21;40.16;101406.91;5072599;28;45431;-65
2021/08/17 06:36:21;;;;;;;;;10.33;10.33;;;;;25.07;40.23;101406.50;5073838;28;45709;-65
2021/08/17 06:38:47;;;;;;;;;12.67;11.00;;;;;24.91;40.49;101407.03;5073546;28;46006;-65
2021/08/17 06:41:13;;;;;;;;;7.67;7.67;;;;;24.73;40.47;101410.38;5055326;28;45468;-65
2021/08/17 06:43:40;;;;;;;;;6.67;6.67;;;;;24.57;40.98;101415.47;5072909;27;46473;-65
2021/08/17 06:46:05;;;;;;;;;10.00;8.33;;;;;24.42;41.35;101411.41;5073189;28;45575;-65
2021/08/17 06:48:31;;;;;;;;;11.00;10.00;;;;;24.29;41.01;101415.44;5049826;28;45559;-65
2021/08/17 06:50:57;;;;;;;;;5.33;5.33;;;;;24.13;41.74;101421.34;5071000;28;45552;-65
2021/08/17 06:53:23;;;;;;;;;7.33;6.33;;;;;24.05;41.67;101419.81;5071844;28;45382;-65
2021/08/17 06:55:49;;;;;;;;;10.00;8.67;;;;;24.02;42.37;101411.78;5070368;28;45437;-65
2021/08/17 06:58:15;;;;;;;;;8.67;8.00;;;;;24.00;41.98;101417.25;5054848;28;45621;-65
2021/08/17 07:00:42;;;;;;;;;11.67;10.67;;;;;23.91;42.27;101412.09;5079001;27;45436;-64
2021/08/17 07:03:08;;;;;;;;;10.00;9.33;;;;;23.83;42.25;101411.44;5052592;28;45469;-64
2021/08/17 07:05:35;;;;;;;;;10.33;9.67;;;;;23.79;43.07;101409.75;5072445;28;45442;-65
2021/08/17 07:08:00;;;;;;;;;11.33;11.00;;;;;23.75;42.35;101414.34;5073545;28;45445;-65
2021/08/17 07:10:26;;;;;;;;;11.00;10.33;;;;;23.64;43.07;101403.81;5075559;28;45695;-65
2021/08/17 07:12:51;;;;;;;;;10.00;10.00;;;;;23.56;42.95;101398.63;5075892;28;46099;-65
2021/08/17 07:15:16;;;;;;;;;9.33;9.33;;;;;23.54;43.30;101413.19;5074456;28;45440;-66
2021/08/17 07:17:42;;;;;;;;;10.33;8.33;;;;;23.38;43.25;101411.84;5076164;27;44874;-65
2021/08/17 07:20:08;;;;;;;;;11.00;10.00;;;;;23.26;43.79;101416.66;5057791;28;44943;-66
2021/08/17 07:22:33;;;;;;;;;10.00;10.00;;;;;23.26;44.40;101416.66;5075106;28;46191;-66
2021/08/17 07:24:58;;;;;;;;;8.33;8.33;;;;;23.28;44.21;101420.22;5074457;28;45368;-66
2021/08/17 07:27:24;;;;;;;;;9.33;7.33;;;;;23.32;44.04;101416.50;5058465;28;45483;-65
2021/08/17 07:29:49;;;;;;;;;13.33;12.00;;;;;23.41;44.60;101417.16;5078117;28;45424;-66
2021/08/17 07:32:15;;;;;;;;;16.67;11.33;;;;;23.45;44.22;101424.28;5075611;28;45394;-67
2021/08/17 07:34:40;;;;;;;;;10.33;10.33;;;;;23.50;44.92;101423.22;5061267;28;45454;-66
2021/08/17 07:37:05;;;;;;;;;10.00;9.00;;;;;23.55;44.35;101428.53;5075593;28;45536;-66
2021/08/17 07:39:31;;;;;;;;;9.00;9.00;;;;;23.56;44.50;101420.34;5076461;28;45694;-66
2021/08/17 07:41:57;;;;;;;;;8.67;7.00;;;;;23.65;44.59;101432.78;5057258;28;46950;-66
2021/08/17 07:44:23;;;;;;;;;11.67;9.00;;;;;23.69;44.42;101419.97;5074379;28;45594;-67
2021/08/17 07:46:48;;;;;;;;;7.33;7.33;;;;;23.70;44.18;101421.75;5076844;28;45471;-64
2021/08/17 07:49:13;;;;;;;;;8.00;6.33;;;;;23.72;44.61;101423.50;5075981;28;45528;-66
2021/08/17 07:51:39;;;;;;;;;10.33;8.67;;;;;23.76;44.61;101421.59;5077262;27;45415;-67
2021/08/17 07:54:05;;;;;;;;;10.33;9.33;;;;;23.82;44.59;101423.25;5073646;28;45971;-65
2021/08/17 07:56:31;;;;;;;;;9.67;8.33;;;;;23.83;43.90;101427.75;5073694;28;45603;-65
2021/08/17 07:58:56;;;;;;;;;7.67;7.67;;;;;23.85;44.20;101424.03;5058630;28;45373;-65
2021/08/17 08:01:22;;;;;;;;;9.00;8.00;;;;;23.89;44.13;101419.41;5073544;28;45698;-65
2021/08/17 08:03:47;;;;;;;;;6.33;6.33;;;;;23.87;44.55;101421.28;5075382;28;45715;-64
2021/08/17 08:06:16;;;;;;;;;7.67;7.67;;;;;23.90;44.05;101423.91;5070248;28;45394;-65
2021/08/17 08:08:42;;;;;;;;;7.33;6.33;;;;;23.90;44.56;101426.63;5074941;27;45605;-66
2021/08/17 08:11:08;;;;;;;;;9.00;8.67;;;;;23.88;44.42;101426.69;5076202;28;47960;-65
2021/08/17 08:13:33;;;;;;;;;9.00;9.00;;;;;23.89;44.58;101422.13;5077009;28;45508;-65
2021/08/17 08:15:59;;;;;;;;;9.67;9.33;;;;;23.85;44.23;101426.75;5077049;28;45559;-65
2021/08/17 08:18:24;;;;;;;;;6.33;6.33;;;;;23.74;44.74;101429.78;5074520;28;45496;-65
2021/08/17 08:20:50;;;;;;;;;10.67;9.67;;;;;23.74;44.64;101429.78;5076672;28;45386;-66
2021/08/17 08:23:15;;;;;;;;;7.33;7.33;;;;;23.79;44.77;101429.66;5077207;28;45447;-64
2021/08/17 08:25:41;;;;;;;;;7.67;7.00;;;;;23.83;44.86;101435.91;5076511;28;45507;-64
2021/08/17 08:28:08;;;;;;;;;7.00;7.00;;;;;23.81;44.86;101429.63;5077248;28;45413;-65
2021/08/17 08:30:35;;;;;;;;;7.67;7.67;;;;;23.86;44.91;101438.53;5076771;28;46218;-66
2021/08/17 08:33:00;;;;;;;;;8.67;8.67;;;;;23.84;45.19;101434.97;5076857;28;44836;-65
2021/08/17 08:35:26;;;;;;;;;7.67;6.67;;;;;23.79;45.11;101426.94;5076173;28;45433;-64
2021/08/17 08:37:51;;;;;;;;;8.33;5.67;;;;;23.73;45.48;101429.81;5076649;28;45381;-65
2021/08/17 08:40:17;;;;;;;;;6.33;6.00;;;;;23.66;45.63;101431.81;5076440;28;46075;-65
2021/08/17 08:42:44;;;;;;;;;6.00;6.00;;;;;23.65;45.58;101434.56;5076267;28;45533;-66
2021/08/17 08:45:10;;;;;;;;;9.00;7.33;;;;;23.45;45.21;101437.88;5074711;28;45589;-64
2021/08/17 08:47:39;;;;;;;;;8.67;8.00;;;;;23.14;46.02;101438.72;5075341;28;46650;-66
2021/08/17 08:50:05;;;;;;;;;8.67;7.33;;;;;22.99;46.41;101439.13;5075665;28;45690;-66
2021/08/17 08:52:31;;;;;;;;;7.67;7.67;;;;;22.83;46.63;101444.94;5075721;28;45356;-67
2021/08/17 08:54:57;;;;;;;;;10.33;10.33;;;;;22.79;47.06;101447.78;5075652;28;45481;-67
2021/08/17 08:57:22;;;;;;;;;8.00;8.00;;;;;22.74;46.86;101429.78;5075065;28;45538;-67
2021/08/17 08:59:48;;;;;;;;;7.00;5.33;;;;;22.80;47.88;101438.69;5075196;28;46502;-66
2021/08/17 09:02:17;;;;;;;;;7.00;6.00;;;;;22.89;47.18;101439.34;5074928;27;45497;-67
2021/08/17 09:04:53;;;;;;;;;9.00;9.00;;;;;22.99;47.60;101433.69;5076406;28;45405;-67
2021/08/17 09:07:38;;;;;;;;;10.67;7.33;;;;;23.09;47.03;101430.72;5076750;28;44813;-68
2021/08/17 09:10:07;;;;;;;;;8.67;8.67;;;;;23.12;47.05;101430.63;5055333;28;48362;-68
2021/08/17 09:12:37;;;;;;;;;9.00;8.33;;;;;23.12;47.09;101436.03;5076219;28;45769;-67
2021/08/17 09:15:10;;;;;;;;;8.00;8.00;;;;;23.11;47.43;101434.28;5057363;28;45614;-68
2021/08/17 09:17:36;;;;;;;;;7.33;6.00;;;;;23.09;47.10;101424.41;5056476;28;45458;-68
2021/08/17 09:20:02;;;;;;;;;8.33;6.67;;;;;23.11;47.13;101431.56;5057160;28;45469;-68
2021/08/17 09:22:28;;;;;;;;;9.67;7.33;;;;;23.05;47.05;101431.72;5075646;28;45661;-68
2021/08/17 09:24:56;;;;;;;;;11.33;8.67;;;;;22.91;47.52;101432.06;5075329;28;45488;-66
2021/08/17 09:27:26;;;;;;;;;4.67;4.67;;;;;22.84;47.38;101435.84;5076376;28;45526;-66
2021/08/17 09:30:30;;;;;;;;;9.33;9.00;;;;;22.63;47.80;101433.69;5056307;28;47116;-67
2021/08/17 09:32:57;;;;;;;;;11.00;10.00;;;;;22.38;48.19;101437.03;4972030;28;45475;-68
2021/08/17 09:35:25;;;;;;;;;9.33;9.33;;;;;22.22;48.29;101431.03;4971853;28;45646;-68
2021/08/17 09:38:09;;;;;;;;;8.67;8.33;;;;;22.15;48.66;101434.78;4973415;28;45423;-68
2021/08/17 09:40:35;;;;;;;;;7.33;7.33;;;;;22.10;49.13;101432.19;4956373;28;46674;-67
2021/08/17 09:43:13;;;;;;;;;10.33;10.33;;;;;22.15;49.06;101432.97;4972691;28;45592;-67
2021/08/17 09:45:38;;;;;;;;;9.67;9.67;;;;;22.21;49.27;101429.22;4972261;28;45714;-67
2021/08/17 09:48:04;;;;;;;;;8.67;8.33;;;;;22.13;48.48;101426.69;4972150;28;46004;-67
2021/08/17 09:50:37;;;;;;;;;8.67;8.67;;;;;22.00;48.57;101427.91;4972654;28;45552;-67
2021/08/17 09:53:11;;;;;;;;;13.00;10.33;;;;;21.83;48.88;101427.38;4972677;28;45566;-71
2021/08/17 09:55:57;;;;;;;;;8.00;8.00;;;;;21.87;50.00;101420.97;4972803;28;45503;-68
2021/08/17 09:58:31;;;;;;;;;9.67;9.67;;;;;22.01;49.12;101420.69;4973006;28;45570;-69
2021/08/17 10:00:59;;;;;;;;;10.00;10.00;;;;;22.14;49.20;101414.94;4972189;28;45532;-67
2021/08/17 10:03:26;;;;;;;;;7.67;7.67;;;;;22.26;49.32;101421.94;4972862;28;45741;-68
2021/08/17 10:05:52;;;;;;;;;9.00;8.00;;;;;22.32;48.31;101420.91;4963730;28;45504;-65
2021/08/17 10:08:21;;;;;;;;;9.00;7.67;;;;;22.39;49.12;101416.22;5075498;28;45457;-66
2021/08/17 10:10:49;;;;;;;;;10.67;9.33;;;;;22.57;49.10;101415.75;5047683;28;47336;-65
2021/08/17 10:13:17;;;;;;;;;6.67;6.67;;;;;22.72;48.79;101409.03;5075846;28;45717;-65
2021/08/17 10:15:44;;;;;;;;;9.00;9.00;;;;;22.85;47.93;101407.81;5056951;28;45591;-64
2021/08/17 10:18:12;;;;;;;;;7.33;7.33;;;;;22.97;48.16;101410.19;5053379;28;45556;-64
2021/08/17 10:20:41;;;;;;;;;10.33;10.33;;;;;23.06;47.71;101400.06;5054807;28;45549;-64
2021/08/17 10:23:08;;;;;;;;;11.67;11.67;;;;;23.13;47.30;101396.25;5054869;28;45460;-64
2021/08/17 10:25:49;;;;;;;;;8.67;7.00;;;;;23.16;47.43;101407.88;5053276;28;45461;-64
2021/08/17 10:28:26;;;;;;;;;9.00;9.00;;;;;23.21;46.78;101396.94;5054718;28;45491;-64
2021/08/17 10:30:53;;;;;;;;;7.67;7.00;;;;;23.18;46.38;101397.00;5054376;28;46440;-64
2021/08/17 10:33:43;;;;;;;;;12.00;11.33;;;;;23.10;46.32;101389.06;5053245;28;45458;-64
2021/08/17 10:36:11;;;;;;;;;9.00;8.67;;;;;22.98;46.62;101394.81;5044385;28;45785;-65
2021/08/17 10:38:39;;;;;;;;;9.33;9.33;;;;;22.92;46.61;101398.56;5054273;28;45449;-64
2021/08/17 10:41:07;;;;;;;;;7.67;7.33;;;;;22.94;46.94;101388.56;5051121;28;47330;-64
2021/08/17 10:43:32;;;;;;;;;10.00;10.00;;;;;23.01;46.27;101388.44;5054170;28;45846;-64
2021/08/17 10:46:05;;;;;;;;;8.00;8.00;;;;;23.00;46.72;101387.50;5054168;28;45357;-64
2021/08/17 10:48:49;;;;;;;;;11.00;10.67;;;;;22.97;45.96;101383.06;5052383;28;45387;-65
2021/08/17 10:51:17;;;;;;;;;10.33;8.67;;;;;22.95;45.51;101382.22;5050579;28;47289;-65
2021/08/17 10:53:42;;;;;;;;;8.33;8.33;;;;;22.81;46.39;101376.28;5053942;28;45412;-64
2021/08/17 10:56:15;;;;;;;;;9.00;7.00;;;;;22.87;46.15;101378.81;5051941;28;45738;-65
2021/08/17 10:58:43;;;;;;;;;6.33;6.33;;;;;22.95;46.51;101379.50;5054278;28;44813;-64
2021/08/17 11:01:09;;;;;;;;;8.33;5.00;;;;;23.07;46.29;101363.88;5055362;28;45519;-64
2021/08/17 11:03:39;;;;;;;;;6.00;5.33;;;;;23.20;46.34;101369.81;5056261;28;45546;-65
2021/08/17 11:06:11;;;;;;;;;6.00;6.00;;;;;23.32;45.67;101364.94;5055339;28;45485;-64
2021/08/17 11:08:39;;;;;;;;;4.67;4.67;;;;;23.46;46.26;101363.66;5054663;28;45711;-64
2021/08/17 11:11:18;;;;;;;;;5.33;4.67;;;;;23.59;46.13;101370.47;5054212;28;45429;-64
2021/08/17 11:14:03;;;;;;;;;2.33;2.33;;;;;23.73;45.33;101376.41;5054233;28;45397;-65
2021/08/17 11:16:29;;;;;;;;;2.33;2.33;;;;;23.85;45.42;101363.41;5055423;28;45496;-66
2021/08/17 11:19:03;;;;;;;;;3.33;3.33;;;;;23.98;45.55;101362.09;5068178;28;45492;-66
2021/08/17 11:21:32;;;;;;;;;3.67;3.00;;;;;24.10;45.20;101361.69;5055084;28;46206;-63
2021/08/17 11:24:22;;;;;;;;;3.33;3.33;;;;;24.26;45.48;101355.72;5066968;28;45706;-68